Flight Track Log - Related Links

Times and Time Zones

All times are in EDT time to prevent confusion due to time zone crossing. See the N908BS flight status page for this flight to view local times or setup timezone preferences in your user account.

Time Position Orientation Groundspeed Altitude Reporting Facility
EDT Latitude Longitude Course Direction KTS MPH feet Rate Location/Type
Wed 11:25:44 AM 35.3811 -119.1103 151° Southeast 190 219 23,000  Level Los Angeles Center
Wed 11:26:46 AM 35.3414 -119.0750 144° Southeast 189 217 6,100 -7,210 Descending Los Angeles Center
Wed 11:27:48 AM 35.3053 -119.0200 129° Southeast 204 235 8,100 2,049 Climbing Los Angeles Center
Wed 11:28:49 AM 35.2581 -118.9550 132° Southeast 209 241 10,300 2,000 Climbing Los Angeles Center
Wed 11:29:51 AM 35.2186 -118.8972 130° Southeast 217 250 12,200 1,806 Climbing Los Angeles Center
Wed 11:30:00 AM 35.2616 -118.8423 129° Southeast  Level FlightAware Approximate
Wed 11:31:00 AM 35.2104 -118.7847 151° Southeast  Level FlightAware Approximate
Wed 11:31:00 AM 35.2422 -118.8019 151° Southeast  Level Estimated
Wed 11:31:55 AM 35.1369 -118.7833 151° Southeast 230 265 15,900  Level Los Angeles Center
Wed 11:32:57 AM 35.0958 -118.7222 129° Southeast 233 268 17,700 1,548 Climbing Los Angeles Center
Wed 11:33:59 AM 35.0514 -118.6606 131° Southeast 240 276 19,100 1,597 Climbing Los Angeles Center
Wed 11:35:01 AM 34.9989 -118.5833 130° Southeast 246 283 21,000 1,645 Climbing Los Angeles Center
Wed 11:36:03 AM 34.9533 -118.5192 131° Southeast 249 287 22,500 968 Climbing Los Angeles Center
Wed 11:37:05 AM 34.9044 -118.4508 131° Southeast 264 304 23,000 240 Climbing Los Angeles Center
Wed 11:38:08 AM 34.8514 -118.3753 131° Southeast 292 336 23,000  Level Los Angeles Center
Wed 11:39:10 AM 34.7961 -118.2967 131° Southeast 305 351 23,000  Level Los Angeles Center
Wed 11:40:12 AM 34.7394 -118.2164 131° Southeast 312 359 23,000  Level Los Angeles Center
Wed 11:41:14 AM 34.7053 -118.1183 113° Southeast 317 365 23,000  Level Los Angeles Center
Wed 11:42:16 AM 34.6814 -117.9972 103° East 317 365 23,000  Level Los Angeles Center
Wed 11:43:18 AM 34.6844 -117.8931 88° East 311 358 23,000  Level Los Angeles Center
Wed 11:44:20 AM 34.6856 -117.7883 89° East 313 360 23,000  Level Los Angeles Center
Wed 11:45:22 AM 34.6969 -117.6861 82° East 309 356 23,000  Level Los Angeles Center
Wed 11:46:24 AM 34.7244 -117.5878 71° East 309 356 23,000  Level Los Angeles Center
Wed 11:47:26 AM 34.7522 -117.4664 74° East 313 360 23,000  Level Los Angeles Center
Wed 11:48:28 AM 34.7767 -117.3661 73° East 313 360 23,000  Level Los Angeles Center
Wed 11:49:31 AM 34.8008 -117.2636 74° East 317 365 23,000  Level Los Angeles Center
Wed 11:50:33 AM 34.8256 -117.1606 74° East 319 367 23,000  Level Los Angeles Center
Wed 11:51:35 AM 34.8556 -117.0389 73° East 317 365 23,000  Level Los Angeles Center
Wed 11:52:36 AM 34.8742 -116.9564 75° East 316 364 23,000  Level Los Angeles Center
Wed 11:53:39 AM 34.9033 -116.8331 74° East 317 365 23,000  Level Los Angeles Center
Wed 11:54:41 AM 34.9278 -116.7317 74° East 314 361 23,000  Level Los Angeles Center
Wed 11:55:43 AM 34.9508 -116.6292 75° East 316 364 23,000  Level Los Angeles Center
Wed 11:56:45 AM 34.9797 -116.5311 70° East 309 356 23,000  Level Los Angeles Center
Wed 11:57:47 AM 35.0322 -116.4219 60° Northeast 311 358 23,000  Level Los Angeles Center
Wed 11:58:50 AM 35.0714 -116.3286 63° Northeast 310 357 23,000  Level Los Angeles Center
Wed 11:59:52 AM 35.1139 -116.2364 61° Northeast 312 359 23,000  Level Los Angeles Center
Wed 12:00:54 PM 35.1533 -116.1428 63° Northeast 311 358 23,000  Level Los Angeles Center
Wed 12:01:56 PM 35.1958 -116.0508 60° Northeast 312 359 23,000 -194 Level Los Angeles Center
Wed 12:02:58 PM 35.2439 -115.9375 63° Northeast 312 359 22,600 -1,210 Descending Los Angeles Center
Wed 12:04:00 PM 35.2861 -115.8431 61° Northeast 316 364 20,500 -2,371 Descending Los Angeles Center
Wed 12:05:02 PM 35.3292 -115.7519 60° Northeast 312 359 17,700 -2,468 Descending Los Angeles Center
Wed 12:06:04 PM 35.3894 -115.6800 44° Northeast 303 349 15,400 -2,419 Descending Los Angeles Center
Wed 12:07:06 PM 35.4456 -115.6050 47° Northeast 299 344 12,700 -2,640 Descending Los Angeles Center
Wed 12:07:44 PM 35.4833 -115.5519 49° Northeast 297 342 11,000 -2,323 Descending Los Angeles Center
Wed 12:08:08 PM 35.5058 -115.5239 45° Northeast 291 335 10,300 -698 Descending Los Angeles Center
Wed 12:09:10 PM 35.5556 -115.4597 46° Northeast 276 318 10,000 -144 Descending Los Angeles Center
Wed 12:10:13 PM 35.6033 -115.3964 47° Northeast 265 305 10,000 -672 Level Los Angeles Center
Wed 12:11:15 PM 35.6531 -115.3303 47° Northeast 261 300 8,600 -968 Descending Los Angeles Center
Wed 12:12:17 PM 35.7139 -115.2483 48° Northeast 266 306 8,000 -290 Descending Los Angeles Center
Wed 12:13:19 PM 35.7553 -115.1897 49° Northeast 253 291 8,000  Level Los Angeles Center
Wed 12:14:21 PM 35.7867 -115.1511 45° Northeast 231 266 8,000 -290 Level Los Angeles Center
Wed 12:15:23 PM 35.8558 -115.1364 10° North 217 250 7,400 -726 Descending Los Angeles Center
Wed 12:16:25 PM 35.9119 -115.1250 North 212 244 6,500 -824 Descending Los Angeles Center
Wed 12:17:34 PM 35.9858 -115.1208 North 211 243 5,600 -462 Descending Los Angeles Center
Wed 12:18:35 PM 36.0422 -115.1022 15° North 211 243 5,500 -103 Descending Los Angeles Center
Wed 12:19:31 PM 36.0922 -115.0864 14° North 209 241 5,400 -934 Descending Los Angeles Center
Wed 12:20:37 PM 36.1317 -115.1153 329° Northwest 186 214 3,600 -1,296 Descending Los Angeles Center
Wed 12:21:36 PM 36.1214 -115.1436 246° West 158 182 2,700 -793 Descending Los Angeles Center
Wed 12:22:38 PM 36.0950 -115.1575 203° Southwest 122 140 2,000 -677 Descending Los Angeles Center
Wed 12:24:00 PM 36.0801 -115.1523 180° South  Level Estimated

Login

Don't have an account? Register now (free) for customized features, flight alerts, and more!